createdAt,value
2023-04-19T00:00:39.397Z,0.00
2023-04-19T00:01:38.766Z,0.00
2023-04-19T00:02:40.410Z,0.00
2023-04-19T00:03:39.225Z,0.00
2023-04-19T00:04:39.296Z,0.00
2023-04-19T00:05:39.407Z,0.00
2023-04-19T00:06:39.559Z,0.00
2023-04-19T00:07:39.698Z,0.00
2023-04-19T00:08:41.377Z,0.00
2023-04-19T00:09:39.988Z,0.00
2023-04-19T00:10:40.910Z,0.00
2023-04-19T00:11:40.300Z,0.00
2023-04-19T00:12:40.451Z,0.00
2023-04-19T00:13:40.608Z,0.00
2023-04-19T00:14:40.709Z,0.00
2023-04-19T00:15:40.864Z,0.00
2023-04-19T00:16:42.892Z,0.00
2023-04-19T00:17:41.305Z,0.00
2023-04-19T00:18:41.439Z,0.00
2023-04-19T00:19:42.604Z,0.00
2023-04-19T00:20:42.406Z,0.00
2023-04-19T00:21:42.077Z,0.00
2023-04-19T00:22:43.376Z,0.00
2023-04-19T00:23:42.367Z,0.00
2023-04-19T00:24:44.401Z,0.00
2023-04-19T00:25:43.442Z,0.00
2023-04-19T00:26:42.827Z,0.00
2023-04-19T00:27:43.018Z,0.00
2023-04-19T00:28:43.176Z,0.00
2023-04-19T00:29:43.327Z,0.00
2023-04-19T00:30:44.399Z,0.00
2023-04-19T00:31:43.695Z,0.00
2023-04-19T00:32:44.483Z,0.00
2023-04-19T00:33:44.056Z,0.00
2023-04-19T00:34:46.379Z,0.00
2023-04-19T00:35:44.426Z,0.00
2023-04-19T00:36:46.368Z,0.00
2023-04-19T00:37:44.721Z,0.00
2023-04-19T00:38:44.860Z,0.00
2023-04-19T00:39:45.932Z,0.00
2023-04-19T00:40:45.887Z,0.00
2023-04-19T00:41:45.378Z,0.00
2023-04-19T00:42:45.529Z,0.00
2023-04-19T00:43:45.688Z,0.00
2023-04-19T00:44:46.418Z,0.00
2023-04-19T00:45:47.283Z,0.00
2023-04-19T00:46:46.944Z,0.00
2023-04-19T00:47:47.028Z,0.00
2023-04-19T00:48:47.415Z,0.00
2023-04-19T00:49:46.659Z,0.00
2023-04-19T00:50:46.836Z,0.00
2023-04-19T00:51:48.873Z,0.00
2023-04-19T00:52:47.912Z,0.00
2023-04-19T00:53:48.265Z,0.00
2023-04-19T00:54:47.632Z,0.00
2023-04-19T00:55:47.820Z,0.00
2023-04-19T00:56:47.955Z,0.00
2023-04-19T00:57:48.077Z,0.00
2023-04-19T00:58:48.251Z,0.00
2023-04-19T00:59:48.914Z,0.00
2023-04-19T01:00:48.569Z,0.00
2023-04-19T01:01:48.795Z,0.00
2023-04-19T01:02:49.958Z,0.00
2023-04-19T01:03:49.178Z,0.00
2023-04-19T01:04:49.217Z,0.00
2023-04-19T01:05:49.418Z,0.00
2023-04-19T01:06:50.421Z,0.00
2023-04-19T01:07:49.798Z,0.00
2023-04-19T01:08:50.922Z,0.00
2023-04-19T01:09:50.448Z,0.00
2023-04-19T01:10:50.396Z,0.00
2023-04-19T01:11:50.567Z,0.00
2023-04-19T01:12:50.754Z,0.00
2023-04-19T01:13:50.910Z,0.00
2023-04-19T01:14:51.920Z,0.00
2023-04-19T01:15:51.389Z,0.00
2023-04-19T01:16:53.386Z,0.00
2023-04-19T01:17:52.292Z,0.00
2023-04-19T01:18:53.275Z,0.00
2023-04-19T01:19:52.919Z,0.00
2023-04-19T01:20:52.153Z,0.00
2023-04-19T01:21:52.958Z,0.00
2023-04-19T01:22:54.380Z,0.00
2023-04-19T01:23:53.377Z,0.00
2023-04-19T01:24:52.806Z,0.00
2023-04-19T01:25:53.011Z,0.00
2023-04-19T01:26:53.918Z,0.00
2023-04-19T01:27:53.459Z,0.00
2023-04-19T01:28:53.939Z,0.00
2023-04-19T01:29:54.426Z,0.00
2023-04-19T01:30:53.988Z,0.00
2023-04-19T01:31:54.225Z,0.00
2023-04-19T01:32:54.405Z,0.00
2023-04-19T01:33:55.885Z,0.00
2023-04-19T01:34:57.382Z,0.00
2023-04-19T01:35:55.888Z,0.00
2023-04-19T01:36:56.894Z,0.00
2023-04-19T01:37:55.386Z,0.00
2023-04-19T01:38:55.553Z,0.00
2023-04-19T01:39:56.427Z,0.00
2023-04-19T01:40:55.958Z,0.00
2023-04-19T01:41:56.129Z,0.00
2023-04-19T01:42:56.307Z,0.00
2023-04-19T01:43:56.492Z,0.00
2023-04-19T01:44:56.658Z,0.00
2023-04-19T01:45:57.431Z,0.00
2023-04-19T01:46:57.923Z,0.00
2023-04-19T01:47:57.934Z,0.00
2023-04-19T01:48:57.447Z,0.00
2023-04-19T01:49:57.616Z,0.00
2023-04-19T01:50:58.425Z,0.00
2023-04-19T01:51:57.901Z,0.00
2023-04-19T01:52:58.036Z,0.00
2023-04-19T01:53:59.889Z,0.00
2023-04-19T01:54:58.373Z,0.00
2023-04-19T01:55:59.388Z,0.00
2023-04-19T01:56:59.908Z,0.00
2023-04-19T01:57:59.450Z,0.00
2023-04-19T01:58:59.076Z,0.00
2023-04-19T02:00:00.889Z,0.00
2023-04-19T02:00:59.395Z,0.00
2023-04-19T02:02:00.429Z,0.00
2023-04-19T02:02:59.839Z,0.00
2023-04-19T02:04:00.072Z,0.00
2023-04-19T02:05:00.929Z,0.00
2023-04-19T02:06:00.272Z,0.00
2023-04-19T02:07:00.422Z,0.00
2023-04-19T02:08:01.009Z,0.00
2023-04-19T02:09:01.401Z,0.00
2023-04-19T02:10:00.993Z,0.00
2023-04-19T02:11:02.888Z,0.00
2023-04-19T02:12:01.593Z,0.00
2023-04-19T02:13:01.974Z,0.00
2023-04-19T02:14:02.459Z,0.00
2023-04-19T02:15:01.835Z,0.00
2023-04-19T02:16:02.981Z,0.00
2023-04-19T02:17:02.179Z,0.00
2023-04-19T02:18:02.916Z,0.00
2023-04-19T02:19:02.444Z,0.00
2023-04-19T02:20:03.450Z,0.00
2023-04-19T02:21:03.443Z,0.00
2023-04-19T02:22:03.901Z,0.00
2023-04-19T02:23:04.408Z,0.00
2023-04-19T02:24:03.262Z,0.00
2023-04-19T02:25:04.408Z,0.00
2023-04-19T02:26:03.520Z,0.00
2023-04-19T02:27:05.429Z,0.00
2023-04-19T02:28:03.950Z,0.00
2023-04-19T02:29:06.374Z,0.00
2023-04-19T02:30:05.188Z,0.00
2023-04-19T02:31:04.439Z,0.00
2023-04-19T02:32:06.426Z,0.00
2023-04-19T02:33:04.777Z,0.00
2023-04-19T02:34:05.894Z,0.00
2023-04-19T02:35:06.102Z,0.00
2023-04-19T02:36:05.354Z,0.00
2023-04-19T02:37:05.551Z,0.00
2023-04-19T02:38:05.783Z,0.00
2023-04-19T02:39:07.903Z,0.00
2023-04-19T02:40:06.203Z,0.00
2023-04-19T02:41:06.332Z,0.00
2023-04-19T02:42:06.550Z,0.00
2023-04-19T02:43:06.752Z,0.00
2023-04-19T02:44:07.405Z,0.00
2023-04-19T02:45:07.002Z,0.00
2023-04-19T02:46:07.187Z,0.00
2023-04-19T02:47:07.345Z,0.00
2023-04-19T02:48:07.980Z,0.00
2023-04-19T02:49:08.418Z,0.00
2023-04-19T02:50:07.800Z,0.00
2023-04-19T02:51:07.914Z,0.00
2023-04-19T02:52:08.037Z,0.00
2023-04-19T02:53:08.919Z,0.00
2023-04-19T02:54:08.510Z,0.00
2023-04-19T02:55:08.749Z,0.00
2023-04-19T02:56:09.900Z,0.00
2023-04-19T02:57:09.014Z,0.00
2023-04-19T02:58:09.149Z,0.00
2023-04-19T02:59:09.850Z,0.00
2023-04-19T03:00:10.446Z,0.00
2023-04-19T03:01:10.432Z,0.00
2023-04-19T03:02:10.003Z,0.00
2023-04-19T03:03:10.122Z,0.00
2023-04-19T03:04:10.336Z,0.00
2023-04-19T03:05:11.449Z,0.00
2023-04-19T03:06:11.462Z,0.00
2023-04-19T03:07:10.839Z,0.00
2023-04-19T03:08:11.025Z,0.00
2023-04-19T03:09:12.906Z,0.00
2023-04-19T03:10:11.387Z,0.00
2023-04-19T03:11:11.548Z,0.00
2023-04-19T03:12:11.758Z,0.00
2023-04-19T03:13:12.445Z,0.00
2023-04-19T03:14:12.070Z,0.00
2023-04-19T03:15:12.999Z,0.00
2023-04-19T03:16:12.437Z,0.00
2023-04-19T03:17:14.913Z,0.00
2023-04-19T03:18:12.784Z,0.00
2023-04-19T03:19:13.054Z,0.00
2023-04-19T03:20:14.946Z,0.00
2023-04-19T03:21:13.339Z,0.00
2023-04-19T03:22:13.500Z,0.00
2023-04-19T03:23:13.629Z,0.00
2023-04-19T03:24:14.216Z,0.00
2023-04-19T03:25:13.923Z,0.00
2023-04-19T03:26:14.114Z,0.00
2023-04-19T03:27:14.385Z,0.00
2023-04-19T03:28:14.467Z,0.00
2023-04-19T03:29:16.405Z,0.00
2023-04-19T03:30:14.791Z,0.00
2023-04-19T03:31:16.030Z,0.00
2023-04-19T03:33:15.999Z,0.00
2023-04-19T03:34:16.655Z,0.00
2023-04-19T03:35:15.719Z,0.00
2023-04-19T03:36:15.882Z,0.00
2023-04-19T03:37:16.054Z,0.00
2023-04-19T03:38:16.172Z,0.00
2023-04-19T03:39:16.332Z,0.00
2023-04-19T03:40:16.523Z,0.00
2023-04-19T03:41:16.690Z,0.00
2023-04-19T03:42:16.869Z,0.00
2023-04-19T03:43:17.010Z,0.00
2023-04-19T03:44:18.079Z,0.00
2023-04-19T03:45:18.492Z,0.00
2023-04-19T03:46:17.635Z,0.00
2023-04-19T03:47:17.844Z,0.00
2023-04-19T03:48:18.003Z,0.00
2023-04-19T03:49:18.174Z,0.00
2023-04-19T03:50:18.336Z,0.00
2023-04-19T03:51:19.540Z,0.00
2023-04-19T03:52:18.671Z,0.00
2023-04-19T03:53:19.443Z,0.00
2023-04-19T03:54:18.989Z,0.00
2023-04-19T03:55:20.908Z,0.00
2023-04-19T03:56:19.386Z,0.00
2023-04-19T03:57:19.542Z,0.00
2023-04-19T03:58:20.444Z,0.00
2023-04-19T03:59:19.832Z,0.00
2023-04-19T04:00:19.955Z,0.00
2023-04-19T04:01:20.100Z,0.00
2023-04-19T04:02:21.956Z,0.00
2023-04-19T04:03:21.672Z,4.00
2023-04-19T04:04:21.090Z,4.00
2023-04-19T04:05:21.505Z,0.00
2023-04-19T04:06:22.901Z,4.00
2023-04-19T04:07:21.900Z,4.00
2023-04-19T04:08:21.959Z,0.00
2023-04-19T04:09:21.972Z,4.00
2023-04-19T04:10:22.402Z,0.00
2023-04-19T04:11:21.937Z,4.00
2023-04-19T04:12:22.951Z,8.00
2023-04-19T04:13:22.944Z,4.00
2023-04-19T04:14:22.446Z,8.00
2023-04-19T04:15:22.959Z,8.00
2023-04-19T04:16:24.591Z,8.00
2023-04-19T04:17:23.494Z,8.00
2023-04-19T04:18:23.036Z,8.00
2023-04-19T04:19:23.172Z,12.00
2023-04-19T04:20:23.381Z,16.00
2023-04-19T04:21:23.535Z,16.00
2023-04-19T04:22:23.687Z,16.00
2023-04-19T04:23:24.451Z,20.00
2023-04-19T04:24:24.904Z,24.00
2023-04-19T04:25:24.970Z,28.00
2023-04-19T04:26:24.331Z,36.00
2023-04-19T04:27:24.505Z,40.00
2023-04-19T04:28:25.419Z,44.00
2023-04-19T04:29:24.898Z,48.00
2023-04-19T04:30:27.847Z,48.00
2023-04-19T04:31:26.402Z,48.00
2023-04-19T04:32:25.555Z,52.00
2023-04-19T04:33:26.309Z,52.00
2023-04-19T04:34:25.920Z,56.00
2023-04-19T04:35:26.040Z,60.00
2023-04-19T04:36:26.923Z,64.00
2023-04-19T04:37:26.521Z,72.00
2023-04-19T04:38:27.482Z,72.00
2023-04-19T04:39:26.815Z,76.00
2023-04-19T04:40:29.455Z,80.00
2023-04-19T04:41:27.969Z,84.00
2023-04-19T04:42:27.474Z,92.00
2023-04-19T04:43:27.589Z,96.00
2023-04-19T04:44:27.980Z,100.00
2023-04-19T04:45:28.998Z,108.00
2023-04-19T04:46:28.156Z,112.00
2023-04-19T04:47:29.033Z,112.00
2023-04-19T04:48:28.991Z,116.00
2023-04-19T04:49:28.628Z,124.00
2023-04-19T04:50:28.784Z,132.00
2023-04-19T04:51:28.957Z,140.00
2023-04-19T04:52:29.120Z,152.00
2023-04-19T04:53:30.933Z,168.00
2023-04-19T04:54:29.416Z,188.00
2023-04-19T04:55:30.493Z,204.00
2023-04-19T04:56:31.065Z,220.00
2023-04-19T04:57:30.439Z,236.00
2023-04-19T04:58:30.073Z,252.00
2023-04-19T04:59:30.988Z,272.00
2023-04-19T05:00:30.347Z,296.00
2023-04-19T05:01:31.582Z,340.00
2023-04-19T05:02:30.847Z,400.00
2023-04-19T05:03:31.499Z,468.00
2023-04-19T05:04:31.088Z,552.00
2023-04-19T05:05:31.935Z,672.00
2023-04-19T05:06:31.440Z,840.00
2023-04-19T05:07:31.579Z,964.00
2023-04-19T05:08:31.989Z,1096.00
2023-04-19T05:09:31.880Z,1220.00
2023-04-19T05:10:32.982Z,1360.00
2023-04-19T05:11:32.232Z,1468.00
2023-04-19T05:12:32.363Z,1576.00
2023-04-19T05:13:33.338Z,1696.00
2023-04-19T05:14:32.697Z,1760.00
2023-04-19T05:15:32.880Z,1768.00
2023-04-19T05:16:34.051Z,1792.00
2023-04-19T05:17:34.060Z,1880.00
2023-04-19T05:18:33.425Z,2004.00
2023-04-19T05:19:34.484Z,2044.00
2023-04-19T05:20:33.906Z,2128.00
2023-04-19T05:21:34.052Z,2192.00
2023-04-19T05:22:34.940Z,2308.00
2023-04-19T05:23:34.420Z,2392.00
2023-04-19T05:24:35.505Z,2936.00
2023-04-19T05:25:34.771Z,4876.00
2023-04-19T05:26:34.927Z,3568.00
2023-04-19T05:27:35.092Z,5204.00
2023-04-19T05:28:35.987Z,7968.00
2023-04-19T05:29:36.480Z,8260.00
2023-04-19T05:30:35.674Z,5992.00
2023-04-19T05:31:35.870Z,3876.00
2023-04-19T05:32:37.049Z,5332.00
2023-04-19T05:33:36.978Z,4336.00
2023-04-19T05:34:36.960Z,4508.00
2023-04-19T05:35:36.510Z,4288.00
2023-04-19T05:36:37.445Z,5652.00
2023-04-19T05:37:36.824Z,5912.00
2023-04-19T05:38:36.956Z,5800.00
2023-04-19T05:39:37.137Z,5388.00
2023-04-19T05:40:37.285Z,5044.00
2023-04-19T05:41:37.947Z,5088.00
2023-04-19T05:42:38.487Z,5244.00
2023-04-19T05:43:38.536Z,5600.00
2023-04-19T05:44:39.450Z,6672.00
2023-04-19T05:45:38.045Z,11116.00
2023-04-19T05:46:39.123Z,13964.00
2023-04-19T05:47:38.486Z,13136.00
2023-04-19T05:48:38.514Z,11128.00
2023-04-19T05:49:41.291Z,15176.00
2023-04-19T05:50:38.789Z,16736.00
2023-04-19T05:51:38.948Z,12708.00
2023-04-19T05:52:39.066Z,11688.00
2023-04-19T05:53:40.015Z,15036.00
2023-04-19T05:54:39.995Z,12028.00
2023-04-19T05:55:40.962Z,13040.00
2023-04-19T05:56:39.822Z,19008.00
2023-04-19T05:57:40.555Z,20640.00
2023-04-19T05:58:40.318Z,21312.00
2023-04-19T05:59:40.956Z,23744.00
2023-04-19T06:00:40.450Z,25504.00
2023-04-19T06:01:40.646Z,30816.00
2023-04-19T06:02:40.925Z,31648.00
2023-04-19T06:03:41.920Z,27744.00
2023-04-19T06:04:42.280Z,14500.00
2023-04-19T06:05:41.372Z,7484.00
2023-04-19T06:06:41.447Z,7276.00
2023-04-19T06:07:47.072Z,7204.00
2023-04-19T06:08:43.746Z,7192.00
2023-04-19T06:09:41.973Z,7200.00
2023-04-19T06:10:53.711Z,7308.00
2023-04-19T06:11:50.691Z,7320.00
2023-04-19T06:12:45.488Z,7344.00
2023-04-19T06:13:42.689Z,7392.00
2023-04-19T06:14:42.825Z,7384.00
2023-04-19T06:15:43.562Z,7428.00
2023-04-19T06:16:43.994Z,7504.00
2023-04-19T06:17:44.024Z,7488.00
2023-04-19T06:18:43.581Z,7520.00
2023-04-19T06:19:43.749Z,7532.00
2023-04-19T06:20:44.505Z,7548.00
2023-04-19T06:21:44.136Z,7544.00
2023-04-19T06:22:46.464Z,7548.00
2023-04-19T06:23:44.500Z,7544.00
2023-04-19T06:24:45.509Z,7260.00
2023-04-19T06:25:44.811Z,7032.00
2023-04-19T06:26:45.847Z,7216.00
2023-04-19T06:27:45.153Z,6188.00
2023-04-19T06:28:45.357Z,6188.00
2023-04-19T06:29:45.516Z,6216.00
2023-04-19T06:30:46.503Z,6364.00
2023-04-19T06:31:47.002Z,7172.00
2023-04-19T06:32:46.103Z,7336.00
2023-04-19T06:33:46.298Z,7544.00
2023-04-19T06:34:47.443Z,7720.00
2023-04-19T06:35:47.460Z,7808.00
2023-04-19T06:36:46.869Z,8300.00
2023-04-19T06:37:47.006Z,9016.00
2023-04-19T06:38:47.170Z,10264.00
2023-04-19T06:39:47.318Z,9232.00
2023-04-19T06:40:47.435Z,9404.00
2023-04-19T06:41:47.551Z,9484.00
2023-04-19T06:42:47.786Z,9564.00
2023-04-19T06:43:48.530Z,10976.00
2023-04-19T06:44:48.258Z,8888.00
2023-04-19T06:45:49.029Z,8692.00
2023-04-19T06:46:48.556Z,8048.00
2023-04-19T06:47:48.737Z,7640.00
2023-04-19T06:48:48.880Z,8064.00
2023-04-19T06:49:48.993Z,8644.00
2023-04-19T06:50:50.005Z,9072.00
2023-04-19T06:51:50.019Z,8860.00
2023-04-19T06:52:49.514Z,9028.00
2023-04-19T06:53:49.643Z,8992.00
2023-04-19T06:54:49.810Z,8924.00
2023-04-19T06:55:50.512Z,9160.00
2023-04-19T06:56:50.124Z,9816.00
2023-04-19T06:57:50.368Z,11416.00
2023-04-19T06:58:50.405Z,12584.00
2023-04-19T06:59:50.527Z,13400.00
2023-04-19T07:00:50.659Z,13012.00
2023-04-19T07:01:50.896Z,12020.00
2023-04-19T07:02:51.057Z,11344.00
2023-04-19T07:03:51.298Z,10860.00
2023-04-19T07:04:51.472Z,10668.00
2023-04-19T07:05:52.514Z,10508.00
2023-04-19T07:06:52.070Z,10348.00
2023-04-19T07:07:52.506Z,10264.00
2023-04-19T07:08:52.159Z,10168.00
2023-04-19T07:09:52.289Z,10180.00
2023-04-19T07:10:52.430Z,10184.00
2023-04-19T07:11:54.467Z,10212.00
2023-04-19T07:12:53.476Z,10184.00
2023-04-19T07:13:52.988Z,10232.00
2023-04-19T07:14:54.007Z,10176.00
2023-04-19T07:15:53.305Z,10232.00
2023-04-19T07:16:53.410Z,10468.00
2023-04-19T07:17:54.538Z,10496.00
2023-04-19T07:18:54.030Z,10520.00
2023-04-19T07:19:53.919Z,10656.00
2023-04-19T07:20:55.967Z,10752.00
2023-04-19T07:21:55.015Z,10956.00
2023-04-19T07:22:54.310Z,11284.00
2023-04-19T07:23:54.478Z,12020.00
2023-04-19T07:24:55.468Z,20864.00
2023-04-19T07:25:55.499Z,33920.00
2023-04-19T07:26:56.031Z,45504.00
2023-04-19T07:27:56.014Z,51360.00
2023-04-19T07:28:56.469Z,59072.00
2023-04-19T07:29:56.515Z,69248.00
2023-04-19T07:30:55.764Z,70464.00
2023-04-19T07:31:56.599Z,54048.00
2023-04-19T07:32:57.005Z,31104.00
2023-04-19T07:33:57.062Z,26688.00
2023-04-19T07:34:56.967Z,38496.00
2023-04-19T07:35:57.472Z,42592.00
2023-04-19T07:36:57.513Z,43616.00
2023-04-19T07:37:57.008Z,45216.00
2023-04-19T07:38:57.976Z,50432.00
2023-04-19T07:39:57.341Z,43904.00
2023-04-19T07:40:57.544Z,29056.00
2023-04-19T07:41:58.515Z,15904.00
2023-04-19T07:42:58.472Z,16032.00
2023-04-19T07:43:58.126Z,30560.00
2023-04-19T07:44:58.521Z,46912.00
2023-04-19T07:45:59.984Z,55200.00
2023-04-19T07:47:00.080Z,48160.00
2023-04-19T07:47:58.819Z,45472.00
2023-04-19T07:48:59.175Z,49088.00
2023-04-19T07:49:59.523Z,48096.00
2023-04-19T07:50:59.420Z,47104.00
2023-04-19T07:52:00.527Z,39232.00
2023-04-19T07:53:01.473Z,40032.00
2023-04-19T07:53:59.936Z,60768.00
2023-04-19T07:55:00.163Z,61088.00
2023-04-19T07:56:00.989Z,53280.00
2023-04-19T07:57:00.490Z,49856.00
2023-04-19T07:58:01.513Z,44128.00
2023-04-19T07:59:08.213Z,47488.00
2023-04-19T08:00:03.999Z,47072.00
2023-04-19T08:01:01.253Z,47392.00
2023-04-19T08:02:02.142Z,49472.00
2023-04-19T08:03:01.597Z,49728.00
2023-04-19T08:04:02.069Z,49504.00
2023-04-19T08:05:02.022Z,52512.00
2023-04-19T08:06:01.876Z,53408.00
2023-04-19T08:07:02.058Z,53056.00
2023-04-19T08:08:02.223Z,52320.00
2023-04-19T08:09:04.484Z,55904.00
2023-04-19T08:10:03.569Z,50752.00
2023-04-19T08:11:02.753Z,63328.00
2023-04-19T08:12:04.489Z,63264.00
2023-04-19T08:13:06.218Z,64512.00
2023-04-19T08:14:12.035Z,73024.00
2023-04-19T08:15:19.660Z,73312.00
2023-04-19T08:17:24.034Z,78592.00
2023-04-19T08:18:06.167Z,60352.00
2023-04-19T08:19:05.186Z,36192.00
2023-04-19T08:20:04.459Z,29504.00
2023-04-19T08:21:05.487Z,27712.00
2023-04-19T08:22:04.765Z,27840.00
2023-04-19T08:23:18.081Z,25952.00
2023-04-19T08:24:08.054Z,19168.00
2023-04-19T08:25:05.278Z,18048.00
2023-04-19T08:26:06.221Z,24704.00
2023-04-19T08:27:06.610Z,30208.00
2023-04-19T08:28:06.498Z,30880.00
2023-04-19T08:29:05.862Z,30624.00
2023-04-19T08:30:06.012Z,31392.00
2023-04-19T08:31:06.163Z,33984.00
2023-04-19T08:32:07.075Z,34752.00
2023-04-19T08:33:06.575Z,36512.00
2023-04-19T08:34:08.399Z,37120.00
2023-04-19T08:35:06.877Z,33248.00
2023-04-19T08:36:07.040Z,22656.00
2023-04-19T08:37:07.200Z,20704.00
2023-04-19T08:38:08.997Z,21408.00
2023-04-19T08:39:29.100Z,19104.00
2023-04-19T08:40:09.778Z,16800.00
2023-04-19T08:41:09.540Z,19968.00
2023-04-19T08:42:13.386Z,23648.00
2023-04-19T08:43:10.389Z,24800.00
2023-04-19T08:44:08.747Z,23584.00
2023-04-19T08:45:27.068Z,24224.00
2023-04-19T08:46:11.014Z,24192.00
2023-04-19T08:47:11.532Z,21664.00
2023-04-19T08:48:11.028Z,19840.00
2023-04-19T08:49:10.097Z,21728.00
2023-04-19T08:50:20.571Z,23360.00
2023-04-19T08:51:12.023Z,25632.00
2023-04-19T08:52:10.255Z,24480.00
2023-04-19T08:54:11.568Z,21760.00
2023-04-19T08:55:11.732Z,16384.00
2023-04-19T08:56:18.137Z,14288.00
2023-04-19T08:57:13.194Z,18656.00
2023-04-19T08:58:15.365Z,23616.00
2023-04-19T08:59:19.104Z,21312.00
2023-04-19T09:00:13.832Z,19680.00
2023-04-19T09:01:19.854Z,20960.00
2023-04-19T09:02:14.323Z,22624.00
2023-04-19T09:03:41.146Z,21088.00
2023-04-19T09:04:31.701Z,21888.00
2023-04-19T09:05:15.326Z,22144.00
2023-04-19T09:06:13.424Z,25856.00
2023-04-19T09:07:15.011Z,20896.00
2023-04-19T09:08:14.416Z,25280.00
2023-04-19T09:09:28.886Z,24480.00
2023-04-19T09:10:15.647Z,25984.00
2023-04-19T09:11:14.507Z,28928.00
2023-04-19T09:12:14.894Z,26720.00
2023-04-19T09:13:15.899Z,30112.00
2023-04-19T09:14:14.239Z,36480.00
2023-04-19T09:15:14.394Z,36320.00
2023-04-19T09:16:15.088Z,37728.00
2023-04-19T09:17:16.073Z,44256.00
2023-04-19T09:18:17.028Z,52608.00
2023-04-19T09:19:23.980Z,58400.00
2023-04-19T09:20:16.316Z,43360.00
2023-04-19T09:21:15.438Z,24000.00
2023-04-19T09:22:15.688Z,30528.00
2023-04-19T09:23:15.772Z,31072.00
2023-04-19T09:24:15.928Z,25024.00
2023-04-19T09:25:37.741Z,23008.00
2023-04-19T09:26:23.250Z,23456.00
2023-04-19T09:27:20.020Z,19904.00
2023-04-19T09:28:16.572Z,18272.00
2023-04-19T09:29:17.078Z,18336.00
2023-04-19T09:30:24.551Z,16672.00
2023-04-19T09:31:39.182Z,15320.00
2023-04-19T09:32:19.186Z,14440.00
2023-04-19T09:33:17.553Z,12672.00
2023-04-19T09:34:17.595Z,12764.00
2023-04-19T09:35:18.068Z,13172.00
2023-04-19T09:36:17.961Z,13204.00
2023-04-19T09:37:35.084Z,12856.00
2023-04-19T09:38:21.027Z,13892.00
2023-04-19T09:39:18.470Z,12980.00
2023-04-19T09:40:19.094Z,13056.00
2023-04-19T09:41:18.638Z,13888.00
2023-04-19T09:42:28.087Z,13776.00
2023-04-19T09:43:45.696Z,13588.00
2023-04-19T09:44:52.922Z,14172.00
2023-04-19T09:45:30.076Z,14900.00
2023-04-19T09:46:23.571Z,14588.00
2023-04-19T09:47:21.417Z,14652.00
2023-04-19T09:48:20.909Z,14536.00
2023-04-19T09:49:33.476Z,14208.00
2023-04-19T09:50:25.175Z,13072.00
2023-04-19T09:51:22.093Z,12028.00
2023-04-19T09:52:21.554Z,9960.00
2023-04-19T09:53:20.905Z,9868.00
2023-04-19T09:54:21.065Z,11340.00
2023-04-19T09:55:27.559Z,11928.00
2023-04-19T09:56:24.021Z,11420.00
2023-04-19T09:57:22.070Z,10780.00
2023-04-19T09:58:22.555Z,9880.00
2023-04-19T09:59:22.288Z,9748.00
2023-04-19T10:00:23.036Z,10384.00
2023-04-19T10:01:23.148Z,9948.00
2023-04-19T10:02:22.916Z,9628.00
2023-04-19T10:03:24.642Z,9880.00
2023-04-19T10:04:32.695Z,10120.00
2023-04-19T10:05:27.237Z,10036.00
2023-04-19T10:07:30.617Z,9512.00
2023-04-19T10:08:25.608Z,9136.00
2023-04-19T10:09:24.562Z,8968.00
2023-04-19T10:10:33.003Z,8668.00
2023-04-19T10:11:26.336Z,8716.00
2023-04-19T10:12:51.759Z,8652.00
2023-04-19T10:13:27.065Z,8508.00
2023-04-19T10:14:26.570Z,8496.00
2023-04-19T10:15:26.824Z,8144.00
2023-04-19T10:16:25.302Z,7348.00
2023-04-19T10:17:25.459Z,7084.00
2023-04-19T10:18:26.077Z,6600.00
2023-04-19T10:19:27.422Z,6924.00
2023-04-19T10:20:26.577Z,6552.00
2023-04-19T10:21:26.097Z,6320.00
2023-04-19T10:22:27.093Z,6788.00
2023-04-19T10:23:26.497Z,6584.00
2023-04-19T10:24:27.532Z,6416.00
2023-04-19T10:25:27.572Z,6812.00
2023-04-19T10:26:27.084Z,6908.00
2023-04-19T10:27:27.234Z,7460.00
2023-04-19T10:28:28.535Z,7920.00
2023-04-19T10:29:27.589Z,8180.00
2023-04-19T10:30:29.553Z,8316.00
2023-04-19T10:31:28.020Z,8168.00
2023-04-19T10:32:29.129Z,7860.00
2023-04-19T10:33:29.080Z,7420.00
2023-04-19T10:34:28.576Z,6920.00
2023-04-19T10:35:30.539Z,6532.00
2023-04-19T10:36:28.774Z,6684.00
2023-04-19T10:37:29.573Z,7176.00
2023-04-19T10:38:30.925Z,6804.00
2023-04-19T10:39:29.602Z,6812.00
2023-04-19T10:40:29.509Z,6428.00
2023-04-19T10:41:29.676Z,6708.00
2023-04-19T10:42:30.803Z,5664.00
2023-04-19T10:43:30.001Z,6088.00
2023-04-19T10:44:30.137Z,5640.00
2023-04-19T10:45:31.091Z,5452.00
2023-04-19T10:46:30.540Z,6180.00
2023-04-19T10:47:31.647Z,4704.00
2023-04-19T10:48:31.574Z,6232.00
2023-04-19T10:49:32.427Z,6720.00
2023-04-19T10:50:32.042Z,6088.00
2023-04-19T10:51:31.588Z,5576.00
2023-04-19T10:52:31.711Z,5728.00
2023-04-19T10:53:31.830Z,5556.00
2023-04-19T10:54:32.009Z,4860.00
2023-04-19T10:55:32.168Z,5920.00
2023-04-19T10:56:32.325Z,5884.00
2023-04-19T10:57:32.494Z,5392.00
2023-04-19T10:58:33.580Z,4772.00
2023-04-19T10:59:32.850Z,5572.00
2023-04-19T11:00:33.605Z,5556.00
2023-04-19T11:01:34.222Z,5528.00
2023-04-19T11:02:33.424Z,5380.00
2023-04-19T11:03:33.658Z,5460.00
2023-04-19T11:04:35.167Z,5108.00
2023-04-19T11:05:33.710Z,4972.00
2023-04-19T11:06:33.901Z,4900.00
2023-04-19T11:07:35.039Z,4880.00
2023-04-19T11:08:34.303Z,4912.00
2023-04-19T11:09:35.094Z,4856.00
2023-04-19T11:10:35.587Z,4864.00
2023-04-19T11:11:34.855Z,4856.00
2023-04-19T11:12:35.055Z,4864.00
2023-04-19T11:13:35.201Z,4864.00
2023-04-19T11:14:35.360Z,4864.00
2023-04-19T11:15:36.126Z,4852.00
2023-04-19T11:16:45.470Z,4852.00
2023-04-19T11:17:38.125Z,4868.00
2023-04-19T11:18:36.635Z,4868.00
2023-04-19T11:19:36.604Z,4864.00
2023-04-19T11:20:36.365Z,4880.00
2023-04-19T11:21:36.509Z,4852.00
2023-04-19T11:22:37.566Z,4848.00
2023-04-19T11:23:36.799Z,4868.00
2023-04-19T11:24:36.944Z,4820.00
2023-04-19T11:25:37.098Z,4828.00
2023-04-19T11:26:37.290Z,4836.00
2023-04-19T11:27:37.471Z,4840.00
2023-04-19T11:28:37.652Z,4832.00
2023-04-19T11:29:37.783Z,4852.00
2023-04-19T11:30:38.590Z,4820.00
2023-04-19T11:31:39.181Z,4856.00
2023-04-19T11:32:39.090Z,4856.00
2023-04-19T11:33:38.496Z,4852.00
2023-04-19T11:34:38.677Z,4844.00
2023-04-19T11:35:40.049Z,4852.00
2023-04-19T11:36:39.628Z,4852.00
2023-04-19T11:37:39.292Z,4848.00
2023-04-19T11:38:39.435Z,4848.00
2023-04-19T11:39:39.647Z,4860.00
2023-04-19T11:40:40.134Z,4844.00
2023-04-19T11:41:40.088Z,4840.00
2023-04-19T11:42:40.232Z,4860.00
2023-04-19T11:43:40.402Z,4844.00
2023-04-19T11:44:41.106Z,4840.00
2023-04-19T11:45:40.803Z,4880.00
2023-04-19T11:46:41.045Z,4872.00
2023-04-19T11:47:41.207Z,4848.00
2023-04-19T11:48:42.120Z,4880.00
2023-04-19T11:49:41.522Z,4880.00
2023-04-19T11:50:41.756Z,4876.00
2023-04-19T11:51:42.155Z,4844.00
2023-04-19T11:52:43.070Z,4824.00
2023-04-19T11:53:42.264Z,4852.00
2023-04-19T11:54:44.561Z,4856.00
2023-04-19T11:55:42.580Z,4868.00
2023-04-19T11:56:42.740Z,4888.00
2023-04-19T11:57:43.932Z,4872.00
2023-04-19T11:58:43.108Z,4912.00
2023-04-19T11:59:45.949Z,4904.00
2023-04-19T12:00:44.112Z,4916.00
2023-04-19T12:01:43.631Z,4956.00
2023-04-19T12:02:44.261Z,5008.00
2023-04-19T12:03:44.883Z,4988.00
2023-04-19T12:04:44.206Z,5028.00
2023-04-19T12:05:44.374Z,5040.00
2023-04-19T12:06:44.543Z,5036.00
2023-04-19T12:07:44.569Z,5004.00
2023-04-19T12:08:45.617Z,5012.00
2023-04-19T12:09:45.115Z,4996.00
2023-04-19T12:10:45.035Z,5020.00
2023-04-19T12:11:45.202Z,5028.00
2023-04-19T12:12:45.354Z,5016.00
2023-04-19T12:13:46.116Z,5068.00
2023-04-19T12:14:45.656Z,5036.00
2023-04-19T12:15:45.824Z,5040.00
2023-04-19T12:16:46.083Z,5076.00
2023-04-19T12:17:56.815Z,5048.00
2023-04-19T12:18:48.358Z,5048.00
2023-04-19T12:19:47.117Z,5044.00
2023-04-19T12:20:46.629Z,5044.00
2023-04-19T12:21:49.085Z,5040.00
2023-04-19T12:22:47.574Z,5048.00
2023-04-19T12:23:48.569Z,4996.00
2023-04-19T12:24:48.117Z,5008.00
2023-04-19T12:25:47.527Z,5012.00
2023-04-19T12:26:48.129Z,4980.00
2023-04-19T12:27:48.616Z,4980.00
2023-04-19T12:28:48.127Z,5000.00
2023-04-19T12:29:49.118Z,5000.00
2023-04-19T12:30:48.492Z,4984.00
2023-04-19T12:31:49.635Z,5016.00